sensor_id;sensor_type;location;lat;lon;timestamp;temperature;humidity
27314;DHT22;14800;48.174;9.798;2022-12-19T00:01:29;-1.30;84.00
27314;DHT22;14800;48.174;9.798;2022-12-19T00:04:01;-1.20;84.10
27314;DHT22;14800;48.174;9.798;2022-12-19T00:06:28;-1.20;84.00
27314;DHT22;14800;48.174;9.798;2022-12-19T00:08:55;-1.20;83.90
27314;DHT22;14800;48.174;9.798;2022-12-19T00:11:23;-1.20;83.90
27314;DHT22;14800;48.174;9.798;2022-12-19T00:13:49;-1.20;83.90
27314;DHT22;14800;48.174;9.798;2022-12-19T00:16:17;-1.20;83.90
27314;DHT22;14800;48.174;9.798;2022-12-19T00:18:44;-1.10;83.90
27314;DHT22;14800;48.174;9.798;2022-12-19T00:21:15;-1.10;83.80
27314;DHT22;14800;48.174;9.798;2022-12-19T00:23:42;-1.10;83.70
27314;DHT22;14800;48.174;9.798;2022-12-19T00:26:21;-1.10;83.80
27314;DHT22;14800;48.174;9.798;2022-12-19T00:28:49;-1.10;83.80
27314;DHT22;14800;48.174;9.798;2022-12-19T00:31:17;-1.10;83.90
27314;DHT22;14800;48.174;9.798;2022-12-19T00:33:43;-1.10;83.90
27314;DHT22;14800;48.174;9.798;2022-12-19T00:36:14;-1.10;83.90
27314;DHT22;14800;48.174;9.798;2022-12-19T00:38:40;-1.10;83.90
27314;DHT22;14800;48.174;9.798;2022-12-19T00:41:14;-1.00;83.90
27314;DHT22;14800;48.174;9.798;2022-12-19T00:43:41;-1.00;83.90
27314;DHT22;14800;48.174;9.798;2022-12-19T00:46:12;-1.10;83.70
27314;DHT22;14800;48.174;9.798;2022-12-19T00:48:38;-1.00;83.70
27314;DHT22;14800;48.174;9.798;2022-12-19T00:51:11;-1.00;83.80
27314;DHT22;14800;48.174;9.798;2022-12-19T00:53:37;-1.00;83.70
27314;DHT22;14800;48.174;9.798;2022-12-19T00:56:05;-1.00;83.80
27314;DHT22;14800;48.174;9.798;2022-12-19T00:58:30;-1.00;83.70
27314;DHT22;14800;48.174;9.798;2022-12-19T01:00:56;-1.00;83.80
27314;DHT22;14800;48.174;9.798;2022-12-19T01:03:23;-1.00;83.80
27314;DHT22;14800;48.174;9.798;2022-12-19T01:05:50;-1.00;83.70
27314;DHT22;14800;48.174;9.798;2022-12-19T01:08:16;-0.90;83.70
27314;DHT22;14800;48.174;9.798;2022-12-19T01:10:45;-0.90;83.60
27314;DHT22;14800;48.174;9.798;2022-12-19T01:13:12;-0.90;83.50
27314;DHT22;14800;48.174;9.798;2022-12-19T01:15:39;-1.00;83.30
27314;DHT22;14800;48.174;9.798;2022-12-19T01:18:06;-1.00;83.20
27314;DHT22;14800;48.174;9.798;2022-12-19T01:20:37;-1.00;83.20
27314;DHT22;14800;48.174;9.798;2022-12-19T01:23:04;-1.00;83.20
27314;DHT22;14800;48.174;9.798;2022-12-19T01:25:32;-1.10;83.20
27314;DHT22;14800;48.174;9.798;2022-12-19T01:27:57;-1.10;83.30
27314;DHT22;14800;48.174;9.798;2022-12-19T01:30:24;-1.10;83.30
27314;DHT22;14800;48.174;9.798;2022-12-19T01:32:49;-1.10;83.30
27314;DHT22;14800;48.174;9.798;2022-12-19T01:35:15;-1.10;83.30
27314;DHT22;14800;48.174;9.798;2022-12-19T01:37:40;-1.10;83.40
27314;DHT22;14800;48.174;9.798;2022-12-19T01:40:06;-1.10;84.20
27314;DHT22;14800;48.174;9.798;2022-12-19T01:42:36;-1.10;83.50
27314;DHT22;14800;48.174;9.798;2022-12-19T01:47:42;-1.10;83.70
27314;DHT22;14800;48.174;9.798;2022-12-19T01:50:13;-1.10;83.90
27314;DHT22;14800;48.174;9.798;2022-12-19T01:52:41;-1.10;84.00
27314;DHT22;14800;48.174;9.798;2022-12-19T01:55:07;-1.10;84.00
27314;DHT22;14800;48.174;9.798;2022-12-19T01:57:33;-1.10;84.10
27314;DHT22;14800;48.174;9.798;2022-12-19T01:59:59;-1.10;84.20
27314;DHT22;14800;48.174;9.798;2022-12-19T02:02:32;-1.10;84.20
27314;DHT22;14800;48.174;9.798;2022-12-19T02:04:58;-1.00;84.30
27314;DHT22;14800;48.174;9.798;2022-12-19T02:07:26;-1.00;84.40
27314;DHT22;14800;48.174;9.798;2022-12-19T02:09:54;-1.00;84.20
27314;DHT22;14800;48.174;9.798;2022-12-19T02:12:21;-1.00;84.20
27314;DHT22;14800;48.174;9.798;2022-12-19T02:14:47;-1.00;84.00
27314;DHT22;14800;48.174;9.798;2022-12-19T02:31:03;-1.00;84.20
27314;DHT22;14800;48.174;9.798;2022-12-19T02:39:06;-0.90;84.40
27314;DHT22;14800;48.174;9.798;2022-12-19T02:41:39;-0.90;84.60
27314;DHT22;14800;48.174;9.798;2022-12-19T02:44:19;-0.90;84.50
27314;DHT22;14800;48.174;9.798;2022-12-19T02:46:47;-0.90;84.60
27314;DHT22;14800;48.174;9.798;2022-12-19T02:49:13;-0.80;84.60
27314;DHT22;14800;48.174;9.798;2022-12-19T02:51:39;-0.80;84.70
27314;DHT22;14800;48.174;9.798;2022-12-19T02:54:05;-0.80;84.60
27314;DHT22;14800;48.174;9.798;2022-12-19T03:05:03;-0.70;84.60
27314;DHT22;14800;48.174;9.798;2022-12-19T03:07:36;-0.70;84.60
27314;DHT22;14800;48.174;9.798;2022-12-19T03:10:38;-0.70;84.50
27314;DHT22;14800;48.174;9.798;2022-12-19T03:13:18;-0.60;84.80
27314;DHT22;14800;48.174;9.798;2022-12-19T03:15:45;-0.60;84.70
27314;DHT22;14800;48.174;9.798;2022-12-19T03:18:12;-0.60;84.70
27314;DHT22;14800;48.174;9.798;2022-12-19T03:23:30;-0.60;84.90
27314;DHT22;14800;48.174;9.798;2022-12-19T03:26:06;-0.60;84.80
27314;DHT22;14800;48.174;9.798;2022-12-19T03:31:16;-0.50;84.90
27314;DHT22;14800;48.174;9.798;2022-12-19T03:33:45;-0.50;84.90
27314;DHT22;14800;48.174;9.798;2022-12-19T03:36:16;-0.50;84.90
27314;DHT22;14800;48.174;9.798;2022-12-19T03:38:44;-0.50;84.90
27314;DHT22;14800;48.174;9.798;2022-12-19T03:41:12;-0.40;84.90
27314;DHT22;14800;48.174;9.798;2022-12-19T03:43:39;-0.40;84.90
27314;DHT22;14800;48.174;9.798;2022-12-19T03:46:17;-0.40;85.00
27314;DHT22;14800;48.174;9.798;2022-12-19T03:48:47;-0.40;85.10
27314;DHT22;14800;48.174;9.798;2022-12-19T04:02:19;-0.20;85.20
27314;DHT22;14800;48.174;9.798;2022-12-19T04:04:55;-0.20;85.10
27314;DHT22;14800;48.174;9.798;2022-12-19T04:07:23;-0.20;85.00
27314;DHT22;14800;48.174;9.798;2022-12-19T04:09:49;-0.10;85.00
27314;DHT22;14800;48.174;9.798;2022-12-19T04:12:25;-0.10;85.80
27314;DHT22;14800;48.174;9.798;2022-12-19T04:14:53;-0.10;85.90
27314;DHT22;14800;48.174;9.798;2022-12-19T04:20:17;0.00;85.20
27314;DHT22;14800;48.174;9.798;2022-12-19T04:25:21;0.00;85.40
27314;DHT22;14800;48.174;9.798;2022-12-19T04:27:54;0.00;85.40
27314;DHT22;14800;48.174;9.798;2022-12-19T04:30:21;0.00;85.40
27314;DHT22;14800;48.174;9.798;2022-12-19T04:32:48;0.10;85.40
27314;DHT22;14800;48.174;9.798;2022-12-19T04:35:14;0.10;85.40
27314;DHT22;14800;48.174;9.798;2022-12-19T04:37:40;0.10;85.40
27314;DHT22;14800;48.174;9.798;2022-12-19T04:40:07;0.10;85.40
27314;DHT22;14800;48.174;9.798;2022-12-19T04:42:33;0.20;85.40
27314;DHT22;14800;48.174;9.798;2022-12-19T04:44:59;0.20;85.50
27314;DHT22;14800;48.174;9.798;2022-12-19T04:47:24;0.20;85.50
27314;DHT22;14800;48.174;9.798;2022-12-19T04:49:50;0.30;85.60
27314;DHT22;14800;48.174;9.798;2022-12-19T04:52:15;0.30;85.70
27314;DHT22;14800;48.174;9.798;2022-12-19T04:54:41;0.30;85.90
27314;DHT22;14800;48.174;9.798;2022-12-19T04:57:07;0.40;86.00
27314;DHT22;14800;48.174;9.798;2022-12-19T04:59:32;0.40;85.90
27314;DHT22;14800;48.174;9.798;2022-12-19T05:01:58;0.40;86.00
27314;DHT22;14800;48.174;9.798;2022-12-19T05:04:24;0.40;86.00
27314;DHT22;14800;48.174;9.798;2022-12-19T05:06:49;0.50;86.10
27314;DHT22;14800;48.174;9.798;2022-12-19T05:09:15;0.50;86.10
27314;DHT22;14800;48.174;9.798;2022-12-19T05:11:40;0.50;86.20
27314;DHT22;14800;48.174;9.798;2022-12-19T05:14:06;0.60;86.30
27314;DHT22;14800;48.174;9.798;2022-12-19T05:16:32;0.60;86.20
27314;DHT22;14800;48.174;9.798;2022-12-19T05:18:57;0.60;86.20
27314;DHT22;14800;48.174;9.798;2022-12-19T05:21:23;0.70;86.30
27314;DHT22;14800;48.174;9.798;2022-12-19T05:23:49;0.70;86.30
27314;DHT22;14800;48.174;9.798;2022-12-19T05:26:15;0.70;86.30
27314;DHT22;14800;48.174;9.798;2022-12-19T05:28:41;0.70;86.30
27314;DHT22;14800;48.174;9.798;2022-12-19T05:31:15;0.70;86.30
27314;DHT22;14800;48.174;9.798;2022-12-19T05:33:42;0.80;86.40
27314;DHT22;14800;48.174;9.798;2022-12-19T05:36:08;0.80;86.30
27314;DHT22;14800;48.174;9.798;2022-12-19T05:38:34;0.80;87.30
27314;DHT22;14800;48.174;9.798;2022-12-19T05:41:09;0.80;86.50
27314;DHT22;14800;48.174;9.798;2022-12-19T05:43:34;0.80;86.60
27314;DHT22;14800;48.174;9.798;2022-12-19T05:46:03;0.80;86.60
27314;DHT22;14800;48.174;9.798;2022-12-19T05:48:30;0.80;86.60
27314;DHT22;14800;48.174;9.798;2022-12-19T05:50:55;0.80;86.60
27314;DHT22;14800;48.174;9.798;2022-12-19T05:53:21;0.80;86.60
27314;DHT22;14800;48.174;9.798;2022-12-19T05:55:47;0.80;86.50
27314;DHT22;14800;48.174;9.798;2022-12-19T05:58:12;0.90;86.60
27314;DHT22;14800;48.174;9.798;2022-12-19T06:00:38;0.90;86.60
27314;DHT22;14800;48.174;9.798;2022-12-19T06:03:04;0.90;86.60
27314;DHT22;14800;48.174;9.798;2022-12-19T06:05:30;0.90;86.60
27314;DHT22;14800;48.174;9.798;2022-12-19T06:07:56;0.90;86.70
27314;DHT22;14800;48.174;9.798;2022-12-19T06:10:22;0.90;86.80
27314;DHT22;14800;48.174;9.798;2022-12-19T06:12:47;0.90;86.80
27314;DHT22;14800;48.174;9.798;2022-12-19T06:15:13;0.90;86.80
27314;DHT22;14800;48.174;9.798;2022-12-19T06:17:38;1.00;86.90
27314;DHT22;14800;48.174;9.798;2022-12-19T06:20:04;1.00;87.00
27314;DHT22;14800;48.174;9.798;2022-12-19T06:22:31;1.00;87.00
27314;DHT22;14800;48.174;9.798;2022-12-19T06:24:58;1.00;86.90
27314;DHT22;14800;48.174;9.798;2022-12-19T06:27:23;1.00;86.90
27314;DHT22;14800;48.174;9.798;2022-12-19T06:29:49;1.00;86.90
27314;DHT22;14800;48.174;9.798;2022-12-19T06:32:15;1.10;87.00
27314;DHT22;14800;48.174;9.798;2022-12-19T06:34:40;1.10;87.10
27314;DHT22;14800;48.174;9.798;2022-12-19T06:37:06;1.10;87.10
27314;DHT22;14800;48.174;9.798;2022-12-19T06:39:31;1.20;87.20
27314;DHT22;14800;48.174;9.798;2022-12-19T06:41:57;1.20;87.10
27314;DHT22;14800;48.174;9.798;2022-12-19T06:44:41;1.20;87.10
27314;DHT22;14800;48.174;9.798;2022-12-19T06:47:08;1.20;87.10
27314;DHT22;14800;48.174;9.798;2022-12-19T06:49:33;1.30;87.20
27314;DHT22;14800;48.174;9.798;2022-12-19T06:51:59;1.30;87.20
27314;DHT22;14800;48.174;9.798;2022-12-19T06:54:25;1.30;87.20
27314;DHT22;14800;48.174;9.798;2022-12-19T06:56:50;1.40;87.20
27314;DHT22;14800;48.174;9.798;2022-12-19T06:59:18;1.40;87.20
27314;DHT22;14800;48.174;9.798;2022-12-19T07:01:51;1.40;87.20
27314;DHT22;14800;48.174;9.798;2022-12-19T07:04:26;1.50;87.20
27314;DHT22;14800;48.174;9.798;2022-12-19T07:06:52;1.50;87.60
27314;DHT22;14800;48.174;9.798;2022-12-19T07:09:18;1.60;87.00
27314;DHT22;14800;48.174;9.798;2022-12-19T07:11:44;1.50;87.80
27314;DHT22;14800;48.174;9.798;2022-12-19T07:14:09;1.60;87.10
27314;DHT22;14800;48.174;9.798;2022-12-19T07:16:35;1.60;87.20
27314;DHT22;14800;48.174;9.798;2022-12-19T07:19:00;1.60;87.20
27314;DHT22;14800;48.174;9.798;2022-12-19T07:21:26;1.60;87.20
27314;DHT22;14800;48.174;9.798;2022-12-19T07:23:51;1.70;87.20
27314;DHT22;14800;48.174;9.798;2022-12-19T07:26:17;1.70;87.20
27314;DHT22;14800;48.174;9.798;2022-12-19T07:28:43;1.70;87.20
27314;DHT22;14800;48.174;9.798;2022-12-19T07:31:09;1.70;87.20
27314;DHT22;14800;48.174;9.798;2022-12-19T07:33:34;1.70;87.20
27314;DHT22;14800;48.174;9.798;2022-12-19T07:36:00;1.80;87.30
27314;DHT22;14800;48.174;9.798;2022-12-19T07:38:25;1.80;87.20
27314;DHT22;14800;48.174;9.798;2022-12-19T07:40:51;1.80;87.20
27314;DHT22;14800;48.174;9.798;2022-12-19T07:43:17;1.90;87.30
27314;DHT22;14800;48.174;9.798;2022-12-19T07:45:42;1.90;87.70
27314;DHT22;14800;48.174;9.798;2022-12-19T07:48:08;1.90;87.30
27314;DHT22;14800;48.174;9.798;2022-12-19T07:50:34;1.90;87.30
27314;DHT22;14800;48.174;9.798;2022-12-19T07:53:00;1.90;87.30
27314;DHT22;14800;48.174;9.798;2022-12-19T07:55:26;2.00;87.50
27314;DHT22;14800;48.174;9.798;2022-12-19T07:57:52;2.00;87.50
27314;DHT22;14800;48.174;9.798;2022-12-19T08:00:18;2.00;87.30
27314;DHT22;14800;48.174;9.798;2022-12-19T08:02:44;2.00;87.30
27314;DHT22;14800;48.174;9.798;2022-12-19T08:05:09;2.00;87.10
27314;DHT22;14800;48.174;9.798;2022-12-19T08:07:35;2.10;87.00
27314;DHT22;14800;48.174;9.798;2022-12-19T08:10:04;2.10;87.00
27314;DHT22;14800;48.174;9.798;2022-12-19T08:12:34;2.10;87.00
27314;DHT22;14800;48.174;9.798;2022-12-19T08:14:59;2.10;87.00
27314;DHT22;14800;48.174;9.798;2022-12-19T08:17:25;2.20;87.00
27314;DHT22;14800;48.174;9.798;2022-12-19T08:19:50;2.20;87.10
27314;DHT22;14800;48.174;9.798;2022-12-19T08:22:16;2.20;87.00
27314;DHT22;14800;48.174;9.798;2022-12-19T08:24:41;2.20;87.00
27314;DHT22;14800;48.174;9.798;2022-12-19T08:27:07;2.30;86.90
27314;DHT22;14800;48.174;9.798;2022-12-19T08:29:32;2.30;86.80
27314;DHT22;14800;48.174;9.798;2022-12-19T08:32:01;2.30;86.70
27314;DHT22;14800;48.174;9.798;2022-12-19T08:34:26;2.30;86.60
27314;DHT22;14800;48.174;9.798;2022-12-19T08:36:52;2.30;86.60
27314;DHT22;14800;48.174;9.798;2022-12-19T08:39:17;2.30;86.60
27314;DHT22;14800;48.174;9.798;2022-12-19T08:41:43;2.20;86.70
27314;DHT22;14800;48.174;9.798;2022-12-19T08:44:10;2.20;87.00
27314;DHT22;14800;48.174;9.798;2022-12-19T08:46:36;2.20;87.20
27314;DHT22;14800;48.174;9.798;2022-12-19T08:49:02;2.20;87.10
27314;DHT22;14800;48.174;9.798;2022-12-19T08:51:27;2.20;87.10
27314;DHT22;14800;48.174;9.798;2022-12-19T08:53:53;2.30;87.20
27314;DHT22;14800;48.174;9.798;2022-12-19T08:56:19;2.30;87.30
27314;DHT22;14800;48.174;9.798;2022-12-19T08:58:46;2.30;87.30
27314;DHT22;14800;48.174;9.798;2022-12-19T09:01:17;2.40;88.20
27314;DHT22;14800;48.174;9.798;2022-12-19T09:03:43;2.40;87.30
27314;DHT22;14800;48.174;9.798;2022-12-19T09:06:11;2.40;87.10
27314;DHT22;14800;48.174;9.798;2022-12-19T09:08:38;2.40;87.00
27314;DHT22;14800;48.174;9.798;2022-12-19T09:11:12;2.50;87.20
27314;DHT22;14800;48.174;9.798;2022-12-19T09:13:39;2.50;87.20
27314;DHT22;14800;48.174;9.798;2022-12-19T09:16:19;2.50;87.20
27314;DHT22;14800;48.174;9.798;2022-12-19T09:18:47;2.60;87.20
27314;DHT22;14800;48.174;9.798;2022-12-19T09:21:14;2.60;87.20
27314;DHT22;14800;48.174;9.798;2022-12-19T09:23:40;2.70;87.10
27314;DHT22;14800;48.174;9.798;2022-12-19T09:26:11;2.70;86.90
27314;DHT22;14800;48.174;9.798;2022-12-19T09:28:39;2.80;87.00
27314;DHT22;14800;48.174;9.798;2022-12-19T09:31:11;2.80;87.00
27314;DHT22;14800;48.174;9.798;2022-12-19T09:33:37;2.90;87.00
27314;DHT22;14800;48.174;9.798;2022-12-19T09:36:04;2.90;87.00
27314;DHT22;14800;48.174;9.798;2022-12-19T09:38:31;3.00;86.80
27314;DHT22;14800;48.174;9.798;2022-12-19T09:41:01;3.00;87.50
27314;DHT22;14800;48.174;9.798;2022-12-19T09:43:40;3.00;86.70
27314;DHT22;14800;48.174;9.798;2022-12-19T09:48:40;3.10;86.60
27314;DHT22;14800;48.174;9.798;2022-12-19T09:51:13;3.20;86.50
27314;DHT22;14800;48.174;9.798;2022-12-19T09:53:51;3.20;86.40
27314;DHT22;14800;48.174;9.798;2022-12-19T09:56:21;3.30;86.30
27314;DHT22;14800;48.174;9.798;2022-12-19T09:58:55;3.30;86.10
27314;DHT22;14800;48.174;9.798;2022-12-19T10:01:28;3.30;86.00
27314;DHT22;14800;48.174;9.798;2022-12-19T10:04:12;3.30;86.10
27314;DHT22;14800;48.174;9.798;2022-12-19T10:06:38;3.40;86.20
27314;DHT22;14800;48.174;9.798;2022-12-19T10:09:14;3.40;86.30
27314;DHT22;14800;48.174;9.798;2022-12-19T10:20:26;3.50;86.30
27314;DHT22;14800;48.174;9.798;2022-12-19T10:34:29;3.60;85.70
27314;DHT22;14800;48.174;9.798;2022-12-19T10:36:59;3.70;85.80
27314;DHT22;14800;48.174;9.798;2022-12-19T10:39:42;3.70;85.80
27314;DHT22;14800;48.174;9.798;2022-12-19T10:42:16;3.70;85.80
27314;DHT22;14800;48.174;9.798;2022-12-19T10:44:44;3.70;85.90
27314;DHT22;14800;48.174;9.798;2022-12-19T10:47:14;3.70;85.80
27314;DHT22;14800;48.174;9.798;2022-12-19T10:49:40;3.80;85.80
27314;DHT22;14800;48.174;9.798;2022-12-19T10:52:07;3.80;85.80
27314;DHT22;14800;48.174;9.798;2022-12-19T10:59:54;3.90;85.80
27314;DHT22;14800;48.174;9.798;2022-12-19T11:05:01;4.00;85.60
27314;DHT22;14800;48.174;9.798;2022-12-19T11:07:26;4.10;85.50
27314;DHT22;14800;48.174;9.798;2022-12-19T11:09:52;4.10;85.30
27314;DHT22;14800;48.174;9.798;2022-12-19T11:12:18;4.10;85.10
27314;DHT22;14800;48.174;9.798;2022-12-19T11:17:37;4.10;84.90
27314;DHT22;14800;48.174;9.798;2022-12-19T11:20:22;4.10;85.00
27314;DHT22;14800;48.174;9.798;2022-12-19T11:22:52;4.20;85.00
27314;DHT22;14800;48.174;9.798;2022-12-19T11:25:22;4.10;85.00
27314;DHT22;14800;48.174;9.798;2022-12-19T11:27:54;4.10;85.00
27314;DHT22;14800;48.174;9.798;2022-12-19T11:30:23;4.10;84.90
27314;DHT22;14800;48.174;9.798;2022-12-19T11:33:13;4.10;84.90
27314;DHT22;14800;48.174;9.798;2022-12-19T11:35:50;4.10;84.90
27314;DHT22;14800;48.174;9.798;2022-12-19T11:38:49;4.10;85.00
27314;DHT22;14800;48.174;9.798;2022-12-19T11:41:21;4.10;85.00
27314;DHT22;14800;48.174;9.798;2022-12-19T11:44:01;4.10;85.00
27314;DHT22;14800;48.174;9.798;2022-12-19T11:47:04;4.10;85.10
27314;DHT22;14800;48.174;9.798;2022-12-19T11:49:47;4.10;85.10
27314;DHT22;14800;48.174;9.798;2022-12-19T11:52:32;4.20;85.00
27314;DHT22;14800;48.174;9.798;2022-12-19T11:55:17;4.10;84.90
27314;DHT22;14800;48.174;9.798;2022-12-19T11:57:44;4.20;84.90
27314;DHT22;14800;48.174;9.798;2022-12-19T12:00:17;4.20;85.10
27314;DHT22;14800;48.174;9.798;2022-12-19T12:05:45;4.20;85.60
27314;DHT22;14800;48.174;9.798;2022-12-19T12:16:35;4.30;85.80
27314;DHT22;14800;48.174;9.798;2022-12-19T12:21:54;4.40;86.10
27314;DHT22;14800;48.174;9.798;2022-12-19T12:24:54;4.40;86.10
27314;DHT22;14800;48.174;9.798;2022-12-19T12:30:02;4.50;85.90
27314;DHT22;14800;48.174;9.798;2022-12-19T12:35:35;4.50;85.60
27314;DHT22;14800;48.174;9.798;2022-12-19T12:38:44;4.50;85.80
27314;DHT22;14800;48.174;9.798;2022-12-19T12:41:15;4.60;85.80
27314;DHT22;14800;48.174;9.798;2022-12-19T12:46:27;4.60;85.20
27314;DHT22;14800;48.174;9.798;2022-12-19T12:49:04;4.60;85.30
27314;DHT22;14800;48.174;9.798;2022-12-19T12:51:32;4.60;85.30
27314;DHT22;14800;48.174;9.798;2022-12-19T12:54:04;4.60;85.40
27314;DHT22;14800;48.174;9.798;2022-12-19T12:56:33;4.60;85.50
27314;DHT22;14800;48.174;9.798;2022-12-19T13:01:52;4.60;85.60
27314;DHT22;14800;48.174;9.798;2022-12-19T13:04:19;4.60;85.60
27314;DHT22;14800;48.174;9.798;2022-12-19T13:09:28;4.60;85.60
27314;DHT22;14800;48.174;9.798;2022-12-19T13:12:22;4.60;85.70
27314;DHT22;14800;48.174;9.798;2022-12-19T13:23:03;4.70;85.80
27314;DHT22;14800;48.174;9.798;2022-12-19T13:27:57;4.70;85.60
27314;DHT22;14800;48.174;9.798;2022-12-19T13:30:23;4.70;85.60
27314;DHT22;14800;48.174;9.798;2022-12-19T13:40:32;4.70;85.60
27314;DHT22;14800;48.174;9.798;2022-12-19T13:45:54;4.80;85.60
27314;DHT22;14800;48.174;9.798;2022-12-19T13:48:34;4.80;85.40
27314;DHT22;14800;48.174;9.798;2022-12-19T13:51:07;4.80;85.40
27314;DHT22;14800;48.174;9.798;2022-12-19T13:53:34;4.80;85.30
27314;DHT22;14800;48.174;9.798;2022-12-19T13:56:08;4.80;85.30
27314;DHT22;14800;48.174;9.798;2022-12-19T13:58:42;4.80;85.30
27314;DHT22;14800;48.174;9.798;2022-12-19T14:01:24;4.80;85.20
27314;DHT22;14800;48.174;9.798;2022-12-19T14:03:53;4.80;85.10
27314;DHT22;14800;48.174;9.798;2022-12-19T14:06:27;4.80;85.10
27314;DHT22;14800;48.174;9.798;2022-12-19T14:09:02;4.80;85.10
27314;DHT22;14800;48.174;9.798;2022-12-19T14:11:29;4.80;84.90
27314;DHT22;14800;48.174;9.798;2022-12-19T14:13:59;4.70;84.90
27314;DHT22;14800;48.174;9.798;2022-12-19T14:16:45;4.80;85.00
27314;DHT22;14800;48.174;9.798;2022-12-19T14:19:42;4.70;85.00
27314;DHT22;14800;48.174;9.798;2022-12-19T14:24:57;4.70;84.80
27314;DHT22;14800;48.174;9.798;2022-12-19T14:27:39;4.70;84.90
27314;DHT22;14800;48.174;9.798;2022-12-19T14:30:16;4.60;84.80
27314;DHT22;14800;48.174;9.798;2022-12-19T14:32:43;4.60;84.80
27314;DHT22;14800;48.174;9.798;2022-12-19T14:35:16;4.60;84.90
27314;DHT22;14800;48.174;9.798;2022-12-19T14:37:43;4.60;84.90
27314;DHT22;14800;48.174;9.798;2022-12-19T14:40:26;4.60;84.90
27314;DHT22;14800;48.174;9.798;2022-12-19T14:43:17;4.60;84.90
27314;DHT22;14800;48.174;9.798;2022-12-19T14:48:47;4.50;84.90
27314;DHT22;14800;48.174;9.798;2022-12-19T14:51:18;4.50;84.90
27314;DHT22;14800;48.174;9.798;2022-12-19T14:56:32;4.40;85.20
27314;DHT22;14800;48.174;9.798;2022-12-19T14:58:59;4.40;85.10
27314;DHT22;14800;48.174;9.798;2022-12-19T15:01:27;4.40;85.20
27314;DHT22;14800;48.174;9.798;2022-12-19T15:04:03;4.30;85.30
27314;DHT22;14800;48.174;9.798;2022-12-19T15:06:34;4.30;86.20
27314;DHT22;14800;48.174;9.798;2022-12-19T15:09:07;4.30;85.40
27314;DHT22;14800;48.174;9.798;2022-12-19T15:11:47;4.30;85.40
27314;DHT22;14800;48.174;9.798;2022-12-19T15:14:44;4.20;85.40
27314;DHT22;14800;48.174;9.798;2022-12-19T15:19:43;4.20;85.30
27314;DHT22;14800;48.174;9.798;2022-12-19T15:22:08;4.10;85.30
27314;DHT22;14800;48.174;9.798;2022-12-19T15:24:34;4.10;85.30
27314;DHT22;14800;48.174;9.798;2022-12-19T15:27:00;4.10;85.30
27314;DHT22;14800;48.174;9.798;2022-12-19T15:29:26;4.00;85.30
27314;DHT22;14800;48.174;9.798;2022-12-19T15:31:51;4.00;85.30
27314;DHT22;14800;48.174;9.798;2022-12-19T15:34:28;4.00;85.10
27314;DHT22;14800;48.174;9.798;2022-12-19T15:36:55;4.00;85.10
27314;DHT22;14800;48.174;9.798;2022-12-19T15:39:25;3.90;85.10
27314;DHT22;14800;48.174;9.798;2022-12-19T15:41:56;3.90;85.10
27314;DHT22;14800;48.174;9.798;2022-12-19T15:46:56;3.70;85.30
27314;DHT22;14800;48.174;9.798;2022-12-19T15:49:22;3.70;85.40
27314;DHT22;14800;48.174;9.798;2022-12-19T15:51:48;3.70;85.60
27314;DHT22;14800;48.174;9.798;2022-12-19T15:54:14;3.60;85.70
27314;DHT22;14800;48.174;9.798;2022-12-19T15:56:43;3.60;85.80
27314;DHT22;14800;48.174;9.798;2022-12-19T15:59:36;3.60;85.90
27314;DHT22;14800;48.174;9.798;2022-12-19T16:02:17;3.60;85.90
27314;DHT22;14800;48.174;9.798;2022-12-19T16:04:44;3.60;85.90
27314;DHT22;14800;48.174;9.798;2022-12-19T16:07:18;3.60;85.80
27314;DHT22;14800;48.174;9.798;2022-12-19T16:09:44;3.50;85.80
27314;DHT22;14800;48.174;9.798;2022-12-19T16:12:35;3.50;86.00
27314;DHT22;14800;48.174;9.798;2022-12-19T16:15:03;3.40;86.00
27314;DHT22;14800;48.174;9.798;2022-12-19T16:17:31;3.40;86.00
27314;DHT22;14800;48.174;9.798;2022-12-19T16:19:57;3.40;86.10
27314;DHT22;14800;48.174;9.798;2022-12-19T16:22:25;3.40;86.10
27314;DHT22;14800;48.174;9.798;2022-12-19T16:24:52;3.40;86.10
27314;DHT22;14800;48.174;9.798;2022-12-19T16:27:22;3.40;86.10
27314;DHT22;14800;48.174;9.798;2022-12-19T16:29:49;3.40;86.10
27314;DHT22;14800;48.174;9.798;2022-12-19T16:32:16;3.40;86.10
27314;DHT22;14800;48.174;9.798;2022-12-19T16:34:41;3.40;86.30
27314;DHT22;14800;48.174;9.798;2022-12-19T16:37:07;3.40;86.60
27314;DHT22;14800;48.174;9.798;2022-12-19T16:39:32;3.40;86.60
27314;DHT22;14800;48.174;9.798;2022-12-19T16:41:58;3.30;86.60
27314;DHT22;14800;48.174;9.798;2022-12-19T16:44:24;3.30;86.60
27314;DHT22;14800;48.174;9.798;2022-12-19T16:46:50;3.40;86.60
27314;DHT22;14800;48.174;9.798;2022-12-19T16:49:20;3.30;86.50
27314;DHT22;14800;48.174;9.798;2022-12-19T16:51:50;3.30;86.60
27314;DHT22;14800;48.174;9.798;2022-12-19T16:54:16;3.30;86.50
27314;DHT22;14800;48.174;9.798;2022-12-19T16:56:47;3.30;86.50
27314;DHT22;14800;48.174;9.798;2022-12-19T16:59:20;3.30;86.30
27314;DHT22;14800;48.174;9.798;2022-12-19T17:01:48;3.20;86.30
27314;DHT22;14800;48.174;9.798;2022-12-19T17:04:15;3.20;86.30
27314;DHT22;14800;48.174;9.798;2022-12-19T17:06:42;3.20;86.20
27314;DHT22;14800;48.174;9.798;2022-12-19T17:09:16;3.20;86.00
27314;DHT22;14800;48.174;9.798;2022-12-19T17:12:03;3.20;85.90
27314;DHT22;14800;48.174;9.798;2022-12-19T17:14:32;3.10;86.00
27314;DHT22;14800;48.174;9.798;2022-12-19T17:16:58;3.10;86.10
27314;DHT22;14800;48.174;9.798;2022-12-19T17:19:36;3.10;86.20
27314;DHT22;14800;48.174;9.798;2022-12-19T17:22:11;3.00;86.30
27314;DHT22;14800;48.174;9.798;2022-12-19T17:24:37;3.00;86.50
27314;DHT22;14800;48.174;9.798;2022-12-19T17:27:03;3.00;86.50
27314;DHT22;14800;48.174;9.798;2022-12-19T17:29:28;3.00;86.50
27314;DHT22;14800;48.174;9.798;2022-12-19T17:31:54;3.00;86.60
27314;DHT22;14800;48.174;9.798;2022-12-19T17:34:32;3.00;86.50
27314;DHT22;14800;48.174;9.798;2022-12-19T17:36:59;3.00;86.30
27314;DHT22;14800;48.174;9.798;2022-12-19T17:39:27;3.00;86.20
27314;DHT22;14800;48.174;9.798;2022-12-19T17:41:55;3.00;86.30
27314;DHT22;14800;48.174;9.798;2022-12-19T17:44:22;3.00;86.50
27314;DHT22;14800;48.174;9.798;2022-12-19T17:46:47;3.00;86.50
27314;DHT22;14800;48.174;9.798;2022-12-19T17:49:22;2.90;86.30
27314;DHT22;14800;48.174;9.798;2022-12-19T17:51:50;2.90;86.30
27314;DHT22;14800;48.174;9.798;2022-12-19T17:54:17;2.90;86.30
27314;DHT22;14800;48.174;9.798;2022-12-19T17:56:43;2.90;86.20
27314;DHT22;14800;48.174;9.798;2022-12-19T17:59:09;2.90;86.20
27314;DHT22;14800;48.174;9.798;2022-12-19T18:01:36;2.90;86.30
27314;DHT22;14800;48.174;9.798;2022-12-19T18:04:02;2.90;86.30
27314;DHT22;14800;48.174;9.798;2022-12-19T18:06:28;2.90;86.40
27314;DHT22;14800;48.174;9.798;2022-12-19T18:08:54;2.80;86.20
27314;DHT22;14800;48.174;9.798;2022-12-19T18:11:22;2.80;86.20
27314;DHT22;14800;48.174;9.798;2022-12-19T18:13:49;2.90;86.20
27314;DHT22;14800;48.174;9.798;2022-12-19T18:16:17;2.80;86.00
27314;DHT22;14800;48.174;9.798;2022-12-19T18:18:44;2.80;85.90
27314;DHT22;14800;48.174;9.798;2022-12-19T18:21:14;2.80;86.00
27314;DHT22;14800;48.174;9.798;2022-12-19T18:23:40;2.80;86.10
27314;DHT22;14800;48.174;9.798;2022-12-19T18:26:06;2.80;86.10